Time;durP1;ratioP1;P1;durP2;ratioP2;P2;SDS_P1;SDS_P2;PMS_P1;PMS_P2;Temp;Humidity;BMP_temperature;BMP_pressure;BME280_temperature;BME280_humidity;BME280_pressure;Samples;Min_cycle;Max_cycle;Signal;HPM_P1;HPM_P2
2021/05/18 00:00:45;;;;;;;1.52;1.25;;;;;;;21.13;35.34;100885.22;5073839;28;20395;-85
2021/05/18 00:03:11;;;;;;;2.65;1.55;;;;;;;21.08;35.22;100891.91;5072615;28;20052;-85
2021/05/18 00:05:40;;;;;;;3.22;1.70;;;;;;;21.03;35.24;100895.03;5072891;28;20033;-84
2021/05/18 00:08:08;;;;;;;2.10;1.73;;;;;;;20.97;35.25;100896.56;5073975;28;20090;-84
2021/05/18 00:13:24;;;;;;;2.33;1.40;;;;;;;20.87;35.37;100892.47;5074237;28;20557;-84
2021/05/18 00:15:54;;;;;;;4.78;1.80;;;;;;;20.91;35.24;100896.09;5073704;28;20063;-84
2021/05/18 00:18:20;;;;;;;6.13;1.95;;;;;;;20.81;35.52;100894.00;5072275;28;20459;-85
2021/05/18 00:20:46;;;;;;;3.25;1.58;;;;;;;20.73;35.55;100884.78;5071384;28;20115;-84
2021/05/18 00:23:12;;;;;;;2.38;1.42;;;;;;;20.74;35.51;100896.69;5071911;28;20540;-84
2021/05/18 00:25:40;;;;;;;3.53;1.63;;;;;;;20.72;35.52;100899.03;5073370;28;20024;-84
2021/05/18 00:28:06;;;;;;;3.72;1.70;;;;;;;20.82;35.40;100898.38;5072122;28;20025;-85
2021/05/18 00:30:33;;;;;;;3.95;1.67;;;;;;;20.80;35.37;100889.63;5071966;28;20086;-85
2021/05/18 00:33:00;;;;;;;4.75;2.00;;;;;;;20.74;35.36;100888.34;5073348;28;20029;-86
2021/05/18 00:35:25;;;;;;;3.88;1.80;;;;;;;20.71;35.12;100892.69;5072146;28;20051;-85
2021/05/18 00:37:51;;;;;;;3.25;1.90;;;;;;;20.63;35.47;100882.69;5071863;28;20506;-85
2021/05/18 00:40:19;;;;;;;3.58;2.28;;;;;;;20.44;35.78;100897.50;5071794;28;20115;-84
2021/05/18 00:42:48;;;;;;;7.63;2.40;;;;;;;20.49;35.74;100899.16;5073126;28;20035;-85
2021/05/18 00:45:15;;;;;;;7.38;2.63;;;;;;;20.47;35.88;100901.47;5071952;28;20028;-84
2021/05/18 00:47:41;;;;;;;3.15;2.13;;;;;;;20.30;35.93;100899.25;5071922;28;20021;-84
2021/05/18 00:50:08;;;;;;;3.35;1.90;;;;;;;20.33;35.88;100899.31;5071497;28;20032;-85
2021/05/18 00:52:34;;;;;;;2.60;1.77;;;;;;;20.27;36.11;100895.25;5071886;28;20360;-85
2021/05/18 00:55:09;;;;;;;3.17;1.92;;;;;;;20.27;35.91;100895.25;5071806;28;20028;-85
2021/05/18 01:00:19;;;;;;;5.13;2.47;;;;;;;20.30;35.79;100899.25;5073070;28;20055;-85
2021/05/18 01:02:47;;;;;;;4.03;2.13;;;;;;;20.26;35.78;100898.41;5071757;28;20028;-85
2021/05/18 01:05:20;;;;;;;3.63;2.28;;;;;;;20.15;36.14;100904.56;5071796;28;20464;-85
2021/05/18 01:07:49;;;;;;;7.93;2.42;;;;;;;20.19;36.00;100910.19;5071667;28;20069;-84
2021/05/18 01:10:16;;;;;;;4.18;2.45;;;;;;;19.85;36.40;100907.28;5072944;28;20103;-84
2021/05/18 01:12:43;;;;;;;5.55;2.33;;;;;;;19.73;36.75;100915.03;5071458;28;20033;-85
2021/05/18 01:15:10;;;;;;;3.65;2.20;;;;;;;19.64;36.70;100912.47;5071615;28;20059;-83
2021/05/18 01:17:37;;;;;;;6.70;2.40;;;;;;;19.66;36.80;100918.47;5071215;28;20027;-83
2021/05/18 01:20:11;;;;;;;3.70;2.65;;;;;;;19.60;37.04;100917.19;5071477;28;20063;-84
2021/05/18 01:22:37;;;;;;;3.78;2.30;;;;;;;19.60;36.99;100911.63;5070877;28;20024;-84
2021/05/18 01:25:05;;;;;;;3.97;2.60;;;;;;;19.48;36.92;100911.78;5072449;28;20398;-83
2021/05/18 01:27:31;;;;;;;3.90;2.47;;;;;;;19.48;36.92;100922.84;5071270;28;20463;-84
2021/05/18 01:29:56;;;;;;;5.80;2.58;;;;;;;19.46;37.07;100922.44;5072773;28;20024;-84
2021/05/18 01:32:25;;;;;;;4.50;2.60;;;;;;;19.39;37.22;100918.34;5071178;28;20509;-85
2021/05/18 01:34:51;;;;;;;5.40;2.80;;;;;;;19.50;36.99;100917.78;5071321;28;20210;-84
2021/05/18 01:37:17;;;;;;;6.80;3.05;;;;;;;19.44;36.96;100917.25;5070959;28;20530;-84
2021/05/18 01:45:15;;;;;;;5.93;3.50;;;;;;;19.21;37.22;100920.00;5073002;28;20032;-84
2021/05/18 01:47:47;;;;;;;4.28;3.13;;;;;;;19.21;37.07;100920.00;5071280;28;20052;-84
2021/05/18 01:50:13;;;;;;;6.65;3.13;;;;;;;19.14;37.22;100933.72;5071373;28;20032;-84
2021/05/18 01:52:39;;;;;;;5.70;2.80;;;;;;;19.02;37.58;100928.34;5071286;28;20633;-85
2021/05/18 01:55:05;;;;;;;6.70;3.28;;;;;;;19.06;37.43;100932.00;5072024;28;20020;-84
2021/05/18 01:57:31;;;;;;;7.82;3.40;;;;;;;19.01;37.32;100923.97;5066821;28;20111;-84
2021/05/18 01:59:57;;;;;;;11.68;4.00;;;;;;;19.05;37.44;100922.09;5072131;28;20127;-84
2021/05/18 02:02:22;;;;;;;4.45;2.72;;;;;;;18.95;37.49;100922.66;5070845;28;20029;-84
2021/05/18 02:04:58;;;;;;;4.72;2.88;;;;;;;18.92;37.51;100926.16;5070826;28;20066;-84
2021/05/18 02:07:28;;;;;;;5.70;3.22;;;;;;;18.84;37.47;100923.25;5069402;28;20490;-84
2021/05/18 02:09:54;;;;;;;4.00;2.83;;;;;;;18.46;38.57;100920.44;5071132;28;20024;-83
2021/05/18 02:12:20;;;;;;;6.30;3.47;;;;;;;18.50;38.39;100924.84;5070924;28;20070;-85
2021/05/18 02:14:50;;;;;;;6.93;3.45;;;;;;;18.63;38.21;100933.03;5071170;28;20036;-84
2021/05/18 02:17:22;;;;;;;4.15;2.97;;;;;;;18.73;37.68;100924.97;5070859;28;20023;-84
2021/05/18 02:25:20;;;;;;;5.45;3.13;;;;;;;18.63;37.95;100920.00;5072518;28;20449;-86
2021/05/18 02:27:46;;;;;;;10.90;3.17;;;;;;;18.67;37.76;100918.16;5070895;28;20033;-83
2021/05/18 02:30:13;;;;;;;6.95;3.20;;;;;;;18.70;37.58;100924.91;5070901;28;20033;-84
2021/05/18 02:32:39;;;;;;;5.13;2.80;;;;;;;18.66;37.72;100930.38;5070818;28;20035;-84
2021/05/18 02:35:07;;;;;;;5.60;3.10;;;;;;;18.66;37.62;100929.56;5074148;28;20032;-83
2021/05/18 02:37:37;;;;;;;6.50;2.90;;;;;;;18.68;37.31;100927.25;5074309;28;20052;-84
2021/05/18 02:40:04;;;;;;;6.03;2.90;;;;;;;18.47;37.59;100931.13;5074199;28;20036;-84
2021/05/18 02:42:29;;;;;;;3.85;2.58;;;;;;;18.35;38.26;100931.25;5075340;28;20029;-83
2021/05/18 02:45:03;;;;;;;6.45;3.10;;;;;;;18.34;38.02;100931.59;5075475;28;20387;-84
2021/05/18 02:50:13;;;;;;;10.32;5.53;;;;;;;18.41;37.79;100931.78;5075723;28;20078;-84
2021/05/18 02:52:40;;;;;;;5.75;3.35;;;;;;;18.35;38.27;100925.72;5073648;28;20491;-84
2021/05/18 02:55:09;;;;;;;7.53;2.90;;;;;;;18.39;37.85;100934.09;5074106;28;20123;-84
2021/05/18 02:57:37;;;;;;;5.32;3.47;;;;;;;18.40;37.86;100938.47;5073842;28;20024;-84
2021/05/18 03:00:16;;;;;;;4.72;2.97;;;;;;;18.32;37.95;100929.22;5073646;28;20044;-84
2021/05/18 03:02:43;;;;;;;6.25;2.83;;;;;;;18.28;37.95;100929.13;5073862;28;20476;-84
2021/05/18 03:05:09;;;;;;;5.53;2.92;;;;;;;18.28;38.10;100934.66;5075103;28;20119;-84
2021/05/18 03:07:35;;;;;;;6.82;3.20;;;;;;;18.23;37.83;100934.94;5075297;28;20103;-85
2021/05/18 03:10:02;;;;;;;6.20;2.90;;;;;;;18.15;38.09;100927.66;5073569;28;20052;-84
2021/05/18 03:12:28;;;;;;;6.30;3.45;;;;;;;18.13;38.25;100932.72;5073742;28;20027;-84
2021/05/18 03:14:54;;;;;;;6.85;3.28;;;;;;;18.20;37.83;100934.84;5073762;28;20384;-85
2021/05/18 03:17:20;;;;;;;7.65;3.85;;;;;;;18.16;38.08;100932.00;5073548;28;20110;-84
2021/05/18 03:19:46;;;;;;;7.05;2.90;;;;;;;17.99;38.24;100935.16;5073433;28;20483;-84
2021/05/18 03:22:11;;;;;;;4.93;2.88;;;;;;;18.04;38.17;100926.56;5073588;28;20033;-85
2021/05/18 03:24:41;;;;;;;6.70;3.60;;;;;;;18.39;37.37;100939.63;5073418;28;20032;-84
2021/05/18 03:27:07;;;;;;;6.10;2.35;;;;;;;18.43;37.30;100927.47;5074663;28;20036;-84
2021/05/18 03:34:47;;;;;;;6.30;2.47;;;;;;;18.56;36.93;100936.44;5034777;28;20084;-75
2021/05/18 03:39:46;;;;;;;4.07;2.40;;;;;;;18.15;37.53;100937.91;5034309;28;20460;-75
2021/05/18 03:42:22;;;;;;;5.35;2.50;;;;;;;18.00;38.05;100931.25;5034274;28;20057;-75
2021/05/18 03:44:54;;;;;;;6.07;2.80;;;;;;;18.07;37.81;100941.66;5033912;28;20060;-75
2021/05/18 04:11:50;;;;;;;5.75;2.28;;;;;;;17.86;37.92;100936.41;5033653;28;20072;-75
2021/05/18 04:16:57;;;;;;;6.00;2.47;;;;;;;17.79;37.85;100941.75;5033707;28;20109;-75
2021/05/18 04:19:28;;;;;;;4.93;2.53;;;;;;;17.81;37.81;100939.44;5033565;28;20021;-76
2021/05/18 04:39:25;;;;;;;6.07;2.85;;;;;;;17.81;38.15;100948.53;5033304;28;20033;-75
2021/05/18 04:42:04;;;;;;;7.95;3.00;;;;;;;17.77;37.87;100952.38;5032685;28;20037;-75
2021/05/18 04:49:52;;;;;;;8.18;3.22;;;;;;;17.86;37.86;100947.47;5033381;28;20121;-76
2021/05/18 05:00:25;;;;;;;5.18;2.42;;;;;;;17.95;37.68;100956.38;5032916;28;20100;-76
2021/05/18 05:15:37;;;;;;;7.40;2.92;;;;;;;17.95;37.60;100962.72;5032955;28;20029;-75
2021/05/18 05:18:03;;;;;;;8.10;3.28;;;;;;;17.89;38.10;100966.91;5032578;28;20468;-75
2021/05/18 05:20:29;;;;;;;7.68;3.17;;;;;;;17.86;38.15;100962.09;5031231;28;20040;-75
2021/05/18 05:22:55;;;;;;;7.03;2.70;;;;;;;18.10;37.81;100963.06;5032702;28;20037;-74
2021/05/18 05:25:21;;;;;;;3.70;2.40;;;;;;;18.12;37.69;100967.06;5032621;28;20029;-74
2021/05/18 05:27:46;;;;;;;4.47;2.50;;;;;;;18.20;37.54;100977.13;5031108;28;20033;-75
2021/05/18 05:30:12;;;;;;;6.57;2.58;;;;;;;18.23;37.59;100973.66;5032303;28;20057;-80
2021/05/18 05:32:38;;;;;;;3.85;2.40;;;;;;;18.34;37.54;100973.09;5031562;28;20439;-80
2021/05/18 05:35:04;;;;;;;6.55;3.00;;;;;;;18.24;37.73;100980.78;5030186;28;20030;-81
2021/05/18 05:37:30;;;;;;;13.10;3.30;;;;;;;18.32;37.89;100980.97;5024898;28;20034;-76
2021/05/18 05:39:55;;;;;;;11.23;3.28;;;;;;;18.39;38.06;100979.16;5025810;28;20088;-76
2021/05/18 05:42:23;;;;;;;8.73;3.10;;;;;;;18.51;37.93;100989.28;5024486;28;20025;-76
2021/05/18 05:44:49;;;;;;;6.72;2.33;;;;;;;18.88;37.68;100988.94;5020772;28;20441;-75
2021/05/18 05:47:14;;;;;;;6.00;2.80;;;;;;;19.21;37.37;100969.06;5022147;28;20036;-76
2021/05/18 05:49:40;;;;;;;5.10;2.78;;;;;;;19.35;37.38;100989.53;5019106;28;20403;-75
2021/05/18 05:52:06;;;;;;;12.32;4.22;;;;;;;19.52;37.30;100990.25;5020897;28;20026;-77
2021/05/18 05:54:35;;;;;;;10.93;3.20;;;;;;;19.76;37.18;100991.91;5022852;28;20150;-76
2021/05/18 05:57:02;;;;;;;9.05;2.97;;;;;;;19.96;37.01;100990.66;5027971;28;20094;-75
2021/05/18 05:59:27;;;;;;;4.50;2.42;;;;;;;20.13;36.73;100992.13;5031158;28;20045;-78
2021/05/18 06:01:53;;;;;;;4.95;2.03;;;;;;;20.22;36.93;100992.66;5029891;28;20021;-77
2021/05/18 06:04:18;;;;;;;20.83;4.28;;;;;;;20.30;36.88;100985.25;5031254;28;20025;-75
2021/05/18 06:06:44;;;;;;;7.03;3.08;;;;;;;20.26;37.04;100996.31;5030209;28;20090;-76
2021/05/18 06:09:10;;;;;;;9.15;2.40;;;;;;;20.41;36.80;100992.59;5016845;28;20451;-76
2021/05/18 06:11:48;;;;;;;7.80;2.58;;;;;;;20.48;36.80;100992.72;5017001;28;20435;-75
2021/05/18 06:43:21;;;;;;;8.68;2.63;;;;;;;21.36;37.17;101002.59;5030750;28;20046;-74
2021/05/18 06:48:13;;;;;;;7.68;2.35;;;;;;;21.16;37.30;100995.56;5034721;28;20044;-82
2021/05/18 06:50:39;;;;;;;11.50;3.42;;;;;;;21.57;36.64;100997.28;5033023;28;20034;-79
2021/05/18 06:53:04;;;;;;;13.02;3.50;;;;;;;21.45;37.05;100994.75;5033278;28;20026;-79
2021/05/18 06:55:32;;;;;;;5.32;2.08;;;;;;;21.55;36.71;101002.44;5035418;28;20490;-77
2021/05/18 06:58:04;;;;;;;20.23;5.45;;;;;;;21.37;37.01;100997.84;5035613;28;20022;-78
2021/05/18 07:00:31;;;;;;;11.13;3.70;;;;;;;21.69;36.41;101006.50;5034120;28;20040;-78
2021/05/18 07:02:58;;;;;;;22.27;4.13;;;;;;;21.43;37.03;100999.09;5033956;28;20025;-77
2021/05/18 07:10:26;;;;;;;28.88;6.07;;;;;;;21.41;36.56;101007.03;5032166;28;20034;-83
2021/05/18 07:12:52;;;;;;;27.45;6.60;;;;;;;21.16;36.89;101015.03;5028746;28;20099;-81
2021/05/18 07:15:18;;;;;;;22.92;4.82;;;;;;;21.25;36.91;101005.22;5032329;28;20065;-86
2021/05/18 07:17:43;;;;;;;20.15;6.38;;;;;;;21.15;37.17;101010.66;5024662;28;20778;-82
2021/05/18 07:20:09;;;;;;;14.02;3.85;;;;;;;21.52;36.66;101008.72;5029890;28;20033;-81
2021/05/18 07:22:35;;;;;;;17.00;4.40;;;;;;;21.46;36.99;101007.50;5025489;28;20038;-80
2021/05/18 07:25:00;;;;;;;10.43;2.80;;;;;;;21.43;37.06;101005.47;5032850;28;20486;-80
2021/05/18 07:27:26;;;;;;;32.22;6.63;;;;;;;21.55;37.01;101010.75;5024032;28;20040;-79
2021/05/18 07:29:52;;;;;;;14.43;3.47;;;;;;;21.73;36.55;101019.28;5028418;28;20453;-79
2021/05/18 07:32:18;;;;;;;20.25;4.78;;;;;;;21.95;36.10;101011.94;5033286;28;20037;-80
2021/05/18 07:34:43;;;;;;;22.40;4.07;;;;;;;22.06;36.23;101018.38;5030688;28;20032;-80
2021/05/18 07:37:09;;;;;;;29.60;5.97;;;;;;;22.14;36.44;101017.31;5031528;28;20029;-83
2021/05/18 07:39:35;;;;;;;24.58;4.70;;;;;;;22.50;35.67;101012.00;5031460;28;20542;-80
2021/05/18 07:42:00;;;;;;;19.50;4.05;;;;;;;22.75;35.50;101003.81;5020951;28;20025;-82
2021/05/18 07:44:26;;;;;;;39.38;6.50;;;;;;;22.75;35.50;101014.94;5013308;28;20134;-81
2021/05/18 07:46:51;;;;;;;10.88;2.28;;;;;;;22.68;35.49;101012.13;5022634;28;20029;-81
2021/05/18 08:05:17;;;;;;;6.68;1.75;;;;;;;22.69;35.51;101030.44;5022507;28;20037;-81
2021/05/18 08:05:17;;;;;;;15.82;3.03;;;;;;;22.80;35.57;101024.91;5021923;28;20018;-81
2021/05/18 08:07:43;;;;;;;26.50;5.40;;;;;;;23.14;34.98;101025.53;5032745;28;20399;-80
2021/05/18 08:10:13;;;;;;;17.58;3.70;;;;;;;23.49;34.41;101022.84;5032510;28;20021;-81
2021/05/18 08:12:39;;;;;;;20.10;5.15;;;;;;;23.93;34.03;101020.94;5033814;28;20057;-81
2021/05/18 08:16:30;;;;;;;16.35;4.43;;;;;;;24.05;34.18;101020.56;5033646;28;20080;-81
2021/05/18 10:36:01;;;;;;;8.68;1.40;;;;;;;27.03;25.57;101033.34;5012518;28;20133;-81
2021/05/18 10:38:32;;;;;;;4.07;1.60;;;;;;;27.01;25.28;101032.97;5014501;28;20097;-81
2021/05/18 10:41:13;;;;;;;11.52;2.22;;;;;;;27.36;24.37;101031.78;5030688;28;20042;-79
2021/05/18 10:43:39;;;;;;;2.85;1.30;;;;;;;27.45;24.84;101026.44;5015634;28;20131;-81
2021/05/18 10:46:27;;;;;;;10.75;2.25;;;;;;;27.08;24.75;101036.53;5015200;28;20037;-82
2021/05/18 10:49:20;;;;;;;29.08;5.93;;;;;;;27.22;24.61;101034.78;5015775;28;20030;-81
2021/05/18 10:51:51;;;;;;;10.55;1.58;;;;;;;27.12;24.77;101032.88;5032775;28;20033;-81
2021/05/18 10:54:28;;;;;;;12.75;2.35;;;;;;;27.22;24.74;101031.97;5032508;28;20072;-82
2021/05/18 10:56:57;;;;;;;1.95;1.02;;;;;;;27.40;24.73;101035.31;5031485;28;20431;-81
2021/05/18 10:59:32;;;;;;;6.68;1.30;;;;;;;27.43;24.48;101028.06;5033367;28;20064;-81
2021/05/18 11:02:00;;;;;;;3.63;1.38;;;;;;;27.52;24.67;101028.34;5033425;28;20041;-81
2021/05/18 11:04:28;;;;;;;6.10;1.80;;;;;;;27.73;24.43;101030.06;5034539;28;20013;-81
2021/05/18 11:06:55;;;;;;;5.10;1.60;;;;;;;27.99;24.40;101034.09;5033242;28;20117;-83
2021/05/18 11:09:23;;;;;;;1.63;0.80;;;;;;;28.09;23.70;101031.09;5034520;28;20033;-82
2021/05/18 11:11:56;;;;;;;4.35;1.27;;;;;;;27.90;24.01;101037.44;5031672;28;20025;-83
2021/05/18 11:14:35;;;;;;;7.05;1.27;;;;;;;27.54;23.04;101029.50;5034586;28;20494;-82
2021/05/18 11:17:07;;;;;;;5.47;1.25;;;;;;;28.08;22.76;101037.94;5032358;28;20379;-82
2021/05/18 11:19:34;;;;;;;2.70;0.80;;;;;;;28.44;22.78;101031.75;5032262;28;20029;-81
2021/05/18 11:22:02;;;;;;;5.03;1.00;;;;;;;28.60;22.07;101043.09;5034491;28;20029;-81
2021/05/18 11:24:28;;;;;;;3.65;0.70;;;;;;;28.78;21.96;101042.75;5031447;28;20392;-82
2021/05/18 11:26:54;;;;;;;3.90;1.23;;;;;;;28.91;21.86;101042.94;5033320;28;20029;-81
2021/05/18 11:29:38;;;;;;;4.47;1.50;;;;;;;29.13;23.22;101032.84;5034820;28;20025;-81
2021/05/18 11:32:12;;;;;;;5.72;1.30;;;;;;;29.12;22.99;101036.91;5034725;28;20502;-81
2021/05/18 11:35:13;;;;;;;3.75;1.58;;;;;;;29.14;24.19;101039.25;5049626;28;20028;-82
2021/05/18 11:37:40;;;;;;;5.13;1.50;;;;;;;29.19;24.18;101039.56;4997187;28;20072;-81
2021/05/18 11:40:10;;;;;;;9.50;1.52;;;;;;;28.96;24.58;101031.19;5049950;28;20037;-81
2021/05/18 11:42:36;;;;;;;2.92;1.38;;;;;;;29.01;24.82;101033.50;5038771;28;20021;-82
2021/05/18 11:45:07;;;;;;;2.95;1.25;;;;;;;28.78;25.10;101034.31;5036824;28;20033;-82
2021/05/18 11:47:32;;;;;;;8.80;1.60;;;;;;;28.63;25.78;101035.81;5034006;28;20036;-81
2021/05/18 11:49:58;;;;;;;4.45;1.80;;;;;;;28.23;26.06;101034.91;5034129;28;20399;-81
2021/05/18 11:52:23;;;;;;;7.80;1.70;;;;;;;28.10;26.66;101032.69;5033920;28;20391;-82
2021/05/18 11:54:49;;;;;;;7.97;2.13;;;;;;;28.08;26.91;101037.16;5034150;28;20025;-82
2021/05/18 11:57:14;;;;;;;9.35;2.08;;;;;;;28.05;25.92;101036.00;5032737;28;20026;-81
2021/05/18 11:59:42;;;;;;;10.35;2.83;;;;;;;27.48;26.66;101041.63;5033819;28;20025;-82
2021/05/18 12:02:08;;;;;;;11.20;2.22;;;;;;;27.19;27.35;101035.59;5048986;28;20029;-82
2021/05/18 12:04:40;;;;;;;9.27;2.33;;;;;;;27.02;27.55;101038.16;5033568;28;20052;-81
2021/05/18 12:07:10;;;;;;;10.82;2.60;;;;;;;27.01;28.16;101035.78;5026203;28;20076;-78
2021/05/18 12:09:38;;;;;;;3.70;1.50;;;;;;;27.08;27.81;101044.16;5030377;28;20084;-81
2021/05/18 12:12:10;;;;;;;7.72;1.70;;;;;;;27.23;28.14;101048.38;5031937;28;20056;-81
2021/05/18 12:14:42;;;;;;;8.10;2.20;;;;;;;27.32;28.07;101043.03;5024025;28;20039;-81
2021/05/18 12:17:08;;;;;;;15.85;4.38;;;;;;;26.71;28.78;101051.34;5029286;28;20030;-81
2021/05/18 12:19:38;;;;;;;6.18;1.75;;;;;;;26.50;29.04;101046.72;5029837;28;20029;-81
2021/05/18 12:22:04;;;;;;;4.65;1.63;;;;;;;26.28;29.77;101051.69;5031463;28;20037;-81
2021/05/18 12:24:30;;;;;;;11.98;2.33;;;;;;;25.79;30.25;101044.47;5033335;28;20379;-82
2021/05/18 12:27:00;;;;;;;14.05;2.35;;;;;;;25.77;30.04;101049.69;5033200;28;20101;-86
2021/05/18 12:29:49;;;;;;;8.95;2.42;;;;;;;25.95;29.87;101049.56;5034462;28;20057;-90
2021/05/18 12:32:19;;;;;;;4.95;1.27;;;;;;;26.00;30.02;101057.53;5022310;28;20041;-88
2021/05/18 12:34:47;;;;;;;7.95;2.15;;;;;;;25.80;30.33;101053.66;5024496;28;20048;-83
2021/05/18 12:37:14;;;;;;;7.18;2.40;;;;;;;26.31;29.50;101054.91;5024485;28;20022;-79
2021/05/18 12:39:44;;;;;;;4.72;2.13;;;;;;;25.97;30.24;101056.34;5026354;28;20025;-89
2021/05/18 12:42:15;;;;;;;10.07;3.03;;;;;;;25.81;29.90;101066.47;5032294;28;20021;-82
2021/05/18 12:44:59;;;;;;;3.30;1.27;;;;;;;25.96;29.48;101077.16;5028728;28;20079;-91
2021/05/18 12:47:31;;;;;;;4.53;1.00;;;;;;;26.17;29.34;101079.00;5032796;28;20091;-84
2021/05/18 12:49:57;;;;;;;4.43;1.20;;;;;;;26.10;29.60;101079.06;5032867;28;20386;-83
2021/05/18 12:52:23;;;;;;;5.72;2.10;;;;;;;26.11;29.47;101077.84;5031571;28;20379;-83
2021/05/18 12:54:49;;;;;;;0.70;0.70;;;;;;;26.31;29.37;101083.69;5031258;28;20028;-82
2021/05/18 12:57:47;;;;;;;1.75;1.10;;;;;;;26.30;29.54;101084.91;5030157;28;20391;-81
2021/05/18 13:00:13;;;;;;;20.60;2.95;;;;;;;26.58;29.87;101086.69;5030092;28;20044;-82
2021/05/18 13:02:42;;;;;;;20.70;3.75;;;;;;;26.88;28.52;101093.59;5030730;28;20145;-81
2021/05/18 13:05:08;;;;;;;14.15;2.92;;;;;;;27.03;28.11;101084.63;5027094;28;20020;-82
2021/05/18 13:07:35;;;;;;;6.47;1.85;;;;;;;27.36;27.47;101085.88;5032316;28;20014;-82
2021/05/18 13:10:07;;;;;;;7.35;1.55;;;;;;;27.38;25.80;101091.88;5029622;28;20022;-82
2021/05/18 13:12:33;;;;;;;9.02;1.52;;;;;;;27.82;26.30;101090.09;5028491;28;20029;-82
2021/05/18 13:15:05;;;;;;;8.75;2.15;;;;;;;27.58;25.18;101097.63;5030104;28;20103;-83
2021/05/18 13:17:32;;;;;;;3.20;0.93;;;;;;;27.93;25.98;101099.16;5030202;28;20037;-84
2021/05/18 13:20:02;;;;;;;7.43;1.98;;;;;;;27.36;26.02;101093.50;5030325;28;20095;-84
2021/05/18 13:22:30;;;;;;;1.73;0.63;;;;;;;27.12;26.39;101098.16;5031214;28;20444;-84
2021/05/18 13:27:57;;;;;;;45.03;6.93;;;;;;;26.85;26.59;101105.66;5030911;28;20022;-83
2021/05/18 13:30:27;;;;;;;6.95;1.65;;;;;;;26.64;26.49;101109.47;5028994;28;20506;-83
2021/05/18 13:32:54;;;;;;;4.57;0.80;;;;;;;26.27;27.09;101113.72;5029882;28;20021;-84
2021/05/18 13:35:21;;;;;;;3.75;0.82;;;;;;;26.47;26.41;101112.00;5030762;28;20025;-84
2021/05/18 13:37:47;;;;;;;4.05;1.42;;;;;;;26.39;26.35;101109.69;5028940;28;20033;-85
2021/05/18 13:40:15;;;;;;;0.88;0.60;;;;;;;26.15;26.36;101105.84;5025876;28;20120;-84
2021/05/18 13:42:41;;;;;;;8.57;1.98;;;;;;;26.02;26.08;101093.53;5028254;28;20702;-84
2021/05/18 13:45:08;;;;;;;10.65;2.42;;;;;;;26.63;25.41;101088.25;5031038;28;20033;-84
2021/05/18 13:47:34;;;;;;;2.35;0.88;;;;;;;26.75;25.73;101085.75;5028777;28;20032;-83
2021/05/18 13:50:01;;;;;;;6.95;1.02;;;;;;;27.13;25.44;101080.16;5030928;28;20034;-83
2021/05/18 13:52:27;;;;;;;2.67;0.90;;;;;;;27.36;25.67;101079.47;5030820;28;20028;-82
2021/05/18 13:54:54;;;;;;;5.50;1.00;;;;;;;26.81;26.92;101086.84;5030302;28;20128;-83
2021/05/18 13:57:20;;;;;;;2.90;1.33;;;;;;;26.99;26.07;101075.47;5028804;28;20231;-84
2021/05/18 13:59:49;;;;;;;7.38;1.85;;;;;;;27.49;25.44;101083.28;5030648;28;20112;-81
2021/05/18 14:02:17;;;;;;;4.72;0.82;;;;;;;27.72;24.91;101071.38;5030567;28;20087;-82
2021/05/18 14:04:42;;;;;;;2.95;0.63;;;;;;;27.90;24.95;101088.00;5029678;28;20026;-82
2021/05/18 14:07:39;;;;;;;6.22;0.90;;;;;;;28.11;25.39;101084.03;5029804;28;20033;-82
2021/05/18 14:10:06;;;;;;;0.95;0.50;;;;;;;27.93;25.79;101084.31;5025823;28;20203;-84
2021/05/18 14:12:32;;;;;;;7.22;0.85;;;;;;;27.91;26.00;101081.16;5028892;28;20033;-82
2021/05/18 14:14:57;;;;;;;8.05;1.70;;;;;;;28.04;25.78;101086.97;5043818;28;20108;-80
2021/05/18 14:17:23;;;;;;;7.00;0.90;;;;;;;27.97;26.08;101096.31;5029410;28;20029;-81
2021/05/18 14:19:49;;;;;;;1.30;0.57;;;;;;;27.64;26.41;101095.91;5031947;28;20025;-82
2021/05/18 14:22:16;;;;;;;31.70;5.05;;;;;;;27.51;26.55;101103.34;5031836;28;20056;-82
2021/05/18 14:25:04;;;;;;;1.30;0.38;;;;;;;27.77;25.75;101104.59;5031218;28;20088;-82
2021/05/18 14:27:31;;;;;;;6.60;1.17;;;;;;;27.50;25.88;101100.94;5031831;28;20026;-81
2021/05/18 14:29:56;;;;;;;9.50;1.52;;;;;;;27.57;25.43;101098.81;5032318;28;20023;-81
2021/05/18 14:32:22;;;;;;;5.65;1.27;;;;;;;27.51;25.24;101103.34;5034616;28;20025;-81
2021/05/18 14:34:47;;;;;;;4.07;0.93;;;;;;;27.66;25.17;101109.56;5029204;28;20057;-81
2021/05/18 14:37:13;;;;;;;11.68;2.25;;;;;;;27.33;25.52;101105.56;5022966;28;20028;-82
2021/05/18 14:45:11;;;;;;;4.28;0.93;;;;;;;27.09;26.53;101125.06;5033790;28;20033;-81
2021/05/18 14:55:36;;;;;;;3.10;1.10;;;;;;;26.73;27.08;101132.19;5031713;28;20787;-83
2021/05/18 14:58:02;;;;;;;1.35;0.63;;;;;;;26.93;27.33;101140.81;5033738;28;20116;-82
2021/05/18 15:00:28;;;;;;;4.25;0.90;;;;;;;26.42;28.70;101146.06;5031321;28;20408;-82
2021/05/18 15:02:54;;;;;;;3.22;1.30;;;;;;;25.91;29.58;101144.75;5033595;28;20025;-82
2021/05/18 15:05:20;;;;;;;17.52;2.80;;;;;;;25.78;30.16;101142.84;5030437;28;20036;-83
2021/05/18 15:07:46;;;;;;;2.00;0.73;;;;;;;25.86;30.25;101136.81;5032696;28;20025;-84
2021/05/18 15:10:12;;;;;;;3.72;1.48;;;;;;;25.51;31.13;101148.13;5033986;28;20063;-86
2021/05/18 15:12:38;;;;;;;5.65;1.42;;;;;;;25.37;31.26;101152.56;5049255;28;20026;-87
2021/05/18 15:15:05;;;;;;;3.42;1.40;;;;;;;24.87;32.53;101155.44;5034547;28;20060;-81
2021/05/18 15:17:30;;;;;;;15.57;3.05;;;;;;;24.99;32.96;101150.63;5033861;28;20495;-88
2021/05/18 15:19:58;;;;;;;3.45;1.63;;;;;;;25.28;32.66;101137.41;5033743;28;20029;-80
2021/05/18 15:22:24;;;;;;;4.78;1.70;;;;;;;25.49;33.03;101134.56;5032862;28;20029;-90
2021/05/18 15:24:50;;;;;;;4.45;1.15;;;;;;;25.22;32.92;101131.44;5035689;28;20029;-89
2021/05/18 15:27:16;;;;;;;9.30;2.00;;;;;;;25.31;33.36;101122.63;5035903;28;20033;-81
2021/05/18 15:29:41;;;;;;;5.00;1.95;;;;;;;25.88;32.48;101111.19;5034776;28;20060;-89
2021/05/18 15:32:07;;;;;;;7.80;1.63;;;;;;;26.20;31.74;101111.78;5035824;28;20127;-83
2021/05/18 15:34:35;;;;;;;12.50;2.42;;;;;;;26.28;32.10;101116.13;5035656;28;20033;-81
2021/05/18 15:37:00;;;;;;;4.50;1.60;;;;;;;26.35;31.99;101108.88;5032396;28;20040;-83
2021/05/18 15:39:27;;;;;;;10.18;1.50;;;;;;;26.45;31.86;101111.63;5033581;28;20483;-91
2021/05/18 15:41:53;;;;;;;3.20;0.98;;;;;;;26.54;31.31;101108.34;5033315;28;20025;-87
2021/05/18 15:44:19;;;;;;;6.78;1.05;;;;;;;26.68;30.74;101108.22;5031314;28;20041;-81
2021/05/18 15:46:45;;;;;;;1.88;0.95;;;;;;;26.87;30.56;101104.03;5035384;28;20037;-88
2021/05/18 15:49:11;;;;;;;2.20;0.70;;;;;;;26.95;31.41;101099.94;5035182;28;20037;-83
2021/05/18 15:51:37;;;;;;;2.75;1.48;;;;;;;27.05;31.38;101110.28;5034133;28;20026;-82
2021/05/18 15:54:04;;;;;;;0.88;0.80;;;;;;;26.85;30.87;101106.47;5034931;28;20045;-89
2021/05/18 15:56:29;;;;;;;2.15;0.82;;;;;;;26.80;30.39;101109.69;5034236;28;20493;-89
2021/05/18 15:58:55;;;;;;;1.23;0.68;;;;;;;26.88;30.05;101114.03;5034659;28;20034;-88
2021/05/18 16:01:20;;;;;;;1.23;0.70;;;;;;;26.59;30.31;101116.28;5035263;28;20377;-89
2021/05/18 16:03:46;;;;;;;1.52;0.55;;;;;;;26.70;30.21;101113.41;5034594;28;20037;-82
2021/05/18 16:06:12;;;;;;;0.85;0.38;;;;;;;26.69;29.66;101115.44;5032302;28;20025;-89
2021/05/18 16:11:09;;;;;;;2.63;0.98;;;;;;;26.30;29.79;101126.94;5032542;28;20097;-89
2021/05/18 16:13:36;;;;;;;1.98;0.77;;;;;;;26.73;29.58;101133.00;5034418;28;20095;-89
2021/05/18 16:16:10;;;;;;;2.72;1.10;;;;;;;26.54;29.81;101125.97;5032995;28;20025;-88
2021/05/18 16:18:38;;;;;;;3.63;1.13;;;;;;;26.55;29.65;101129.56;5034161;28;20029;-89
2021/05/18 16:21:08;;;;;;;3.33;0.85;;;;;;;26.40;29.85;101128.88;5034965;28;20025;-89
2021/05/18 16:23:37;;;;;;;2.05;0.95;;;;;;;26.35;30.05;101134.09;5034315;28;20159;-81
2021/05/18 16:26:03;;;;;;;6.75;2.55;;;;;;;26.21;30.25;101134.97;5034908;28;20480;-82
2021/05/18 16:28:28;;;;;;;3.25;1.05;;;;;;;26.60;29.51;101142.31;5034207;28;20032;-87
2021/05/18 16:30:54;;;;;;;1.95;0.82;;;;;;;26.41;29.55;101130.47;5032765;28;20052;-80
2021/05/18 16:33:21;;;;;;;8.35;1.20;;;;;;;26.03;29.87;101140.72;5032664;28;20029;-80